Time;durP1;ratioP1;P1;durP2;ratioP2;P2;SDS_P1;SDS_P2;PMS_P1;PMS_P2;Temp;Humidity;BMP_temperature;BMP_pressure;BME280_temperature;BME280_humidity;BME280_pressure;Samples;Min_cycle;Max_cycle;Signal;HPM_P1;HPM_P2
2021/09/20 00:04:27;;;;;;;10.90;6.10;;;;;;;12.55;67.38;98944.55;236187;1195;140212;-62
2021/09/20 00:09:31;;;;;;;11.70;6.60;;;;;;;12.54;67.22;98946.20;236369;1195;138624;-63
2021/09/20 00:14:34;;;;;;;13.70;6.90;;;;;;;12.55;67.32;98943.48;236156;1195;138295;-63
2021/09/20 00:19:37;;;;;;;11.40;7.00;;;;;;;12.54;67.42;98941.78;235754;1195;139663;-61
2021/09/20 00:24:40;;;;;;;10.30;6.90;;;;;;;12.51;67.37;98942.73;235869;1195;139026;-64
2021/09/20 00:29:45;;;;;;;12.40;7.10;;;;;;;12.48;67.30;98947.36;236296;1195;138544;-64
2021/09/20 00:34:48;;;;;;;13.20;7.20;;;;;;;12.46;67.52;98953.56;236026;1195;138423;-62
2021/09/20 00:39:51;;;;;;;9.10;6.00;;;;;;;12.42;67.46;98944.77;235919;1195;138616;-65
2021/09/20 00:44:54;;;;;;;8.70;5.90;;;;;;;12.43;67.48;98942.57;236128;1195;139477;-63
2021/09/20 00:49:57;;;;;;;10.00;6.30;;;;;;;12.47;67.38;98939.97;236264;1195;139043;-64
2021/09/20 00:55:01;;;;;;;9.60;6.20;;;;;;;12.50;67.52;98938.88;236188;1195;139131;-64
2021/09/20 01:00:05;;;;;;;12.30;6.60;;;;;;;12.49;67.29;98943.19;236159;1195;138408;-64
2021/09/20 01:05:10;;;;;;;10.80;6.70;;;;;;;12.48;67.71;98941.88;235586;1195;144634;-61
2021/09/20 01:10:14;;;;;;;10.20;6.60;;;;;;;12.49;67.30;98935.02;235750;1196;139063;-60
2021/09/20 01:15:19;;;;;;;9.60;6.40;;;;;;;12.48;67.59;98938.62;236084;1194;138947;-62
2021/09/20 01:20:22;;;;;;;7.90;5.50;;;;;;;12.46;67.37;98941.83;235795;1195;138845;-59
2021/09/20 01:25:26;;;;;;;7.40;5.50;;;;;;;12.46;67.20;98943.08;236052;1181;139198;-61
2021/09/20 01:30:29;;;;;;;7.90;5.60;;;;;;;12.47;67.46;98944.42;235799;1196;139542;-65
2021/09/20 01:35:32;;;;;;;10.00;6.10;;;;;;;12.46;67.02;98936.48;235817;1195;138852;-61
2021/09/20 01:40:35;;;;;;;7.60;5.60;;;;;;;12.42;67.20;98940.84;236026;1195;138709;-65
2021/09/20 01:45:38;;;;;;;7.60;5.90;;;;;;;12.39;67.05;98944.99;236228;1195;138766;-61
2021/09/20 01:50:42;;;;;;;10.60;5.70;;;;;;;12.33;67.31;98938.14;236077;1194;139227;-61
2021/09/20 01:55:45;;;;;;;7.80;4.90;;;;;;;12.30;67.32;98935.86;235341;1195;139852;-64
2021/09/20 02:00:48;;;;;;;9.20;5.30;;;;;;;12.29;67.48;98940.55;236331;1194;140399;-62
2021/09/20 02:05:51;;;;;;;8.40;6.20;;;;;;;12.31;67.39;98941.45;236189;1195;140876;-65
2021/09/20 02:10:54;;;;;;;10.20;6.30;;;;;;;12.36;67.42;98945.41;236165;1195;138967;-62
2021/09/20 02:15:57;;;;;;;9.00;5.90;;;;;;;12.38;67.31;98944.39;236157;1195;138993;-62
2021/09/20 02:21:00;;;;;;;8.20;5.50;;;;;;;12.36;67.24;98949.86;236490;1195;138444;-63
2021/09/20 02:26:04;;;;;;;9.00;6.20;;;;;;;12.33;67.24;98943.98;235908;1195;139169;-62
2021/09/20 02:31:09;;;;;;;8.20;5.50;;;;;;;12.25;67.20;98943.50;236070;1195;138830;-62
2021/09/20 02:36:12;;;;;;;11.00;5.70;;;;;;;12.19;67.03;98945.69;236143;1194;139698;-62
2021/09/20 02:41:16;;;;;;;10.20;6.00;;;;;;;12.22;67.32;98947.30;235892;1195;139107;-59
2021/09/20 02:46:20;;;;;;;7.80;6.30;;;;;;;12.23;67.37;98948.45;235989;1195;138793;-61
2021/09/20 02:51:23;;;;;;;11.20;6.50;;;;;;;12.21;67.52;98945.17;236305;1195;138805;-63
2021/09/20 02:56:28;;;;;;;8.70;6.20;;;;;;;12.20;67.39;98945.25;236104;1195;138968;-68
2021/09/20 03:01:31;;;;;;;9.60;6.70;;;;;;;12.17;67.30;98947.65;235737;1195;138690;-68
2021/09/20 03:06:34;;;;;;;9.20;5.60;;;;;;;12.13;67.78;98951.98;236168;1195;138756;-66
2021/09/20 03:11:37;;;;;;;7.30;5.10;;;;;;;12.13;67.46;98945.73;235655;1196;139520;-60
2021/09/20 03:16:40;;;;;;;9.80;6.10;;;;;;;12.14;67.67;98944.64;235913;1195;139563;-61
2021/09/20 03:21:43;;;;;;;7.40;6.60;;;;;;;12.18;67.50;98947.88;236188;1195;139069;-61
2021/09/20 03:26:46;;;;;;;8.80;6.60;;;;;;;12.17;68.02;98948.54;236058;1195;138826;-63
2021/09/20 03:31:49;;;;;;;9.60;6.30;;;;;;;12.16;67.55;98953.00;235856;1195;138812;-63
2021/09/20 03:36:52;;;;;;;10.00;7.20;;;;;;;12.14;67.52;98951.90;235882;1195;137922;-60
2021/09/20 03:41:55;;;;;;;8.80;6.40;;;;;;;12.11;67.76;98956.02;236179;1195;138828;-62
2021/09/20 03:46:58;;;;;;;13.10;7.00;;;;;;;12.06;67.63;98954.75;235880;1195;139095;-62
2021/09/20 03:52:02;;;;;;;9.60;6.20;;;;;;;12.05;67.77;98950.73;235697;1195;139667;-65
2021/09/20 03:57:07;;;;;;;9.30;7.10;;;;;;;12.05;67.74;98958.04;235918;1196;140715;-65
2021/09/20 04:02:10;;;;;;;9.60;7.00;;;;;;;12.06;67.56;98964.71;235955;1195;138807;-63
2021/09/20 04:07:13;;;;;;;11.10;7.30;;;;;;;12.06;68.08;98959.73;236388;1195;141383;-62
2021/09/20 04:12:17;;;;;;;8.80;7.40;;;;;;;12.07;67.78;98967.30;236063;1195;139893;-64
2021/09/20 04:17:20;;;;;;;10.00;7.20;;;;;;;12.04;67.77;98967.55;236296;1195;139137;-61
2021/09/20 04:22:23;;;;;;;13.00;7.80;;;;;;;12.01;67.81;98967.05;236153;1195;138751;-62
2021/09/20 04:27:27;;;;;;;10.00;6.50;;;;;;;11.98;67.90;98971.84;236312;1195;140873;-62
2021/09/20 04:32:30;;;;;;;10.60;7.00;;;;;;;11.98;68.12;98970.27;236030;1195;139261;-62
2021/09/20 04:37:34;;;;;;;9.40;7.00;;;;;;;12.02;68.04;98972.84;235861;1195;139089;-66
2021/09/20 04:42:38;;;;;;;10.20;7.60;;;;;;;12.07;67.97;98966.09;236163;1195;139264;-63
2021/09/20 04:47:41;;;;;;;10.60;8.00;;;;;;;12.11;67.86;98970.06;236096;1195;138709;-61
2021/09/20 04:52:43;;;;;;;14.20;7.50;;;;;;;12.10;67.77;98983.48;236218;1195;139315;-62
2021/09/20 04:57:47;;;;;;;12.50;8.40;;;;;;;12.09;67.73;98987.81;235346;1195;138596;-67
2021/09/20 05:02:50;;;;;;;11.00;7.50;;;;;;;12.09;67.75;98989.44;236328;1195;138731;-62
2021/09/20 05:07:58;;;;;;;8.40;6.40;;;;;;;12.09;67.56;98994.22;235377;1195;138949;-64
2021/09/20 05:13:07;;;;;;;9.80;7.00;;;;;;;12.09;67.70;98997.10;234291;1195;139865;-62
2021/09/20 05:18:14;;;;;;;120.50;95.40;;;;;;;12.16;67.98;99004.05;235808;1195;139656;-62
2021/09/20 05:23:17;;;;;;;11.90;8.20;;;;;;;12.26;68.23;99005.13;235747;1195;139162;-64
2021/09/20 05:28:20;;;;;;;12.10;7.80;;;;;;;12.34;68.13;99003.36;236127;1195;138630;-62
2021/09/20 05:33:23;;;;;;;99.20;69.40;;;;;;;12.39;67.86;99009.40;235973;1194;138466;-62
2021/09/20 05:38:26;;;;;;;12.00;8.70;;;;;;;12.41;67.77;99012.31;235729;1195;138953;-62
2021/09/20 05:43:29;;;;;;;33.80;26.40;;;;;;;12.45;67.65;99014.45;236027;1195;139078;-62
2021/09/20 05:48:32;;;;;;;11.80;6.70;;;;;;;12.46;67.64;99012.45;236294;1194;138944;-60
2021/09/20 05:53:35;;;;;;;9.30;6.30;;;;;;;12.46;67.48;99019.60;234737;1195;139012;-59
2021/09/20 05:58:44;;;;;;;12.20;6.80;;;;;;;12.47;67.43;99023.81;234425;1195;140352;-60
2021/09/20 06:03:51;;;;;;;9.50;6.50;;;;;;;12.46;67.33;99027.44;234770;1195;138216;-62
2021/09/20 06:08:55;;;;;;;13.10;6.20;;;;;;;12.43;67.04;99026.52;234549;1195;138612;-64
2021/09/20 06:14:07;;;;;;;12.70;6.40;;;;;;;12.38;66.91;99031.39;234442;1196;138717;-63
2021/09/20 06:19:15;;;;;;;9.30;6.20;;;;;;;12.32;66.96;99035.50;234722;1195;140344;-60
2021/09/20 06:24:18;;;;;;;75.00;53.00;;;;;;;12.28;66.87;99034.52;236301;1195;138837;-62
2021/09/20 06:29:21;;;;;;;17.10;10.40;;;;;;;12.26;66.91;99027.01;236265;1195;138766;-61
2021/09/20 06:34:25;;;;;;;8.60;5.40;;;;;;;12.27;67.11;99029.48;235412;1195;140220;-62
2021/09/20 06:39:28;;;;;;;7.90;5.50;;;;;;;12.26;66.86;99029.67;235671;1195;139679;-62
2021/09/20 06:44:31;;;;;;;41.00;26.40;;;;;;;12.30;67.13;99029.20;235995;1195;140263;-66
2021/09/20 06:49:35;;;;;;;12.10;5.80;;;;;;;12.41;67.04;99030.92;236204;1195;139935;-62
2021/09/20 06:54:38;;;;;;;9.70;6.10;;;;;;;12.46;66.81;99026.52;235999;1195;138935;-64
2021/09/20 06:59:41;;;;;;;8.80;6.20;;;;;;;12.51;66.84;99027.61;236107;1195;138867;-62
2021/09/20 07:04:44;;;;;;;10.70;7.90;;;;;;;12.52;66.46;99029.63;235845;1195;138538;-62
2021/09/20 07:09:47;;;;;;;8.10;6.20;;;;;;;12.54;66.63;99033.24;235957;1195;138535;-64
2021/09/20 07:14:50;;;;;;;9.80;7.30;;;;;;;12.58;66.66;99042.45;236316;1195;139314;-63
2021/09/20 07:19:54;;;;;;;7.90;5.90;;;;;;;12.59;66.62;99046.06;236223;1195;138471;-62
2021/09/20 07:24:57;;;;;;;9.20;6.70;;;;;;;12.62;66.63;99054.58;235442;1196;139588;-60
2021/09/20 07:30:00;;;;;;;9.40;6.50;;;;;;;12.67;66.43;99060.63;236009;1194;138910;-63
2021/09/20 07:35:03;;;;;;;7.10;5.70;;;;;;;12.76;66.59;99061.27;236199;1194;138848;-63
2021/09/20 07:40:07;;;;;;;6.80;4.50;;;;;;;12.81;66.38;99066.78;236133;1194;139507;-63
2021/09/20 07:45:11;;;;;;;7.50;4.40;;;;;;;12.81;66.34;99067.98;236466;1194;139340;-62
2021/09/20 07:50:15;;;;;;;7.30;5.20;;;;;;;12.76;66.21;99067.45;235365;1195;138327;-61
2021/09/20 07:55:19;;;;;;;8.10;5.10;;;;;;;12.73;66.25;99065.23;236045;1195;141043;-61
2021/09/20 08:00:26;;;;;;;10.30;5.60;;;;;;;12.68;66.11;99072.17;236147;1195;138924;-61
2021/09/20 08:05:29;;;;;;;8.30;5.50;;;;;;;12.69;66.41;99080.97;236213;1194;138805;-61
2021/09/20 08:10:33;;;;;;;10.00;5.40;;;;;;;12.69;66.07;99090.58;235826;1195;139606;-61
2021/09/20 08:15:41;;;;;;;8.00;5.90;;;;;;;12.73;66.06;99098.32;236042;1195;140073;-64
2021/09/20 08:20:45;;;;;;;10.30;6.10;;;;;;;12.76;65.84;99105.73;236339;1195;138325;-60
2021/09/20 08:25:49;;;;;;;8.40;5.70;;;;;;;12.74;65.73;99108.73;235898;1195;138587;-60
2021/09/20 08:30:52;;;;;;;7.90;6.00;;;;;;;12.71;65.92;99109.70;235684;1196;140288;-60
2021/09/20 08:35:56;;;;;;;10.10;5.50;;;;;;;12.67;65.75;99118.34;235560;1195;138729;-63
2021/09/20 08:41:00;;;;;;;7.20;4.70;;;;;;;12.57;65.31;99119.88;236155;1194;138916;-63
2021/09/20 08:46:05;;;;;;;9.00;5.20;;;;;;;12.45;65.07;99120.75;235943;1195;138475;-62
2021/09/20 08:51:09;;;;;;;11.90;5.00;;;;;;;12.31;65.10;99126.66;235870;1195;139056;-58
2021/09/20 08:56:13;;;;;;;6.50;4.40;;;;;;;12.20;65.29;99130.59;235900;1195;139632;-60
2021/09/20 09:01:16;;;;;;;11.70;4.60;;;;;;;12.14;65.56;99133.19;236094;1195;139198;-62
2021/09/20 09:06:30;;;;;;;173.60;103.90;;;;;;;12.12;65.65;99135.59;235982;1195;139847;-61
2021/09/20 09:11:33;;;;;;;17.60;5.30;;;;;;;12.14;65.82;99132.11;236172;1195;139758;-61
2021/09/20 09:16:36;;;;;;;11.30;4.80;;;;;;;12.13;65.63;99138.20;235987;1195;139395;-61
2021/09/20 09:21:43;;;;;;;12.20;4.50;;;;;;;12.09;65.77;99137.59;235831;1195;138921;-62
2021/09/20 09:26:58;;;;;;;8.00;4.60;;;;;;;12.05;65.81;99142.77;236064;1195;138265;-62
2021/09/20 09:32:03;;;;;;;9.10;4.60;;;;;;;12.04;65.95;99144.27;236119;1195;139137;-62
2021/09/20 09:37:11;;;;;;;9.80;5.00;;;;;;;12.04;65.98;99144.79;235748;1195;139176;-61
2021/09/20 09:42:23;;;;;;;10.20;5.10;;;;;;;12.06;66.13;99147.17;236160;1195;138675;-61
2021/09/20 09:47:29;;;;;;;7.10;4.00;;;;;;;12.11;65.89;99153.10;235838;1195;140167;-62
2021/09/20 09:52:36;;;;;;;5.90;4.50;;;;;;;12.10;65.48;99154.58;235672;1195;139391;-61
2021/09/20 09:57:41;;;;;;;7.60;5.00;;;;;;;12.13;65.54;99157.93;236058;1195;138969;-60
2021/09/20 10:02:47;;;;;;;5.80;4.80;;;;;;;12.15;65.25;99166.17;236185;1195;139195;-60
2021/09/20 10:07:53;;;;;;;190.50;124.90;;;;;;;12.10;64.90;99171.09;234922;1195;138723;-60
2021/09/20 10:13:04;;;;;;;10.10;6.60;;;;;;;12.07;65.17;99174.69;235425;1196;139645;-60
2021/09/20 10:18:07;;;;;;;9.30;5.20;;;;;;;11.95;64.33;99173.70;235972;1194;140257;-60
2021/09/20 10:23:10;;;;;;;10.00;5.40;;;;;;;11.86;64.53;99175.54;235965;1195;138678;-59
2021/09/20 10:28:13;;;;;;;7.40;5.40;;;;;;;11.76;64.03;99175.09;236141;1195;138985;-59
2021/09/20 10:33:16;;;;;;;19.70;11.00;;;;;;;11.71;64.51;99176.65;235838;1195;138566;-60
2021/09/20 10:38:23;;;;;;;9.30;5.30;;;;;;;11.69;64.45;99180.69;236040;1194;139639;-62
2021/09/20 10:43:27;;;;;;;6.70;4.60;;;;;;;11.70;64.45;99177.13;235897;1195;139350;-61
2021/09/20 10:48:46;;;;;;;10.00;4.70;;;;;;;11.77;64.82;99180.37;235805;1195;139078;-61
2021/09/20 10:54:13;;;;;;;7.80;3.60;;;;;;;11.91;64.65;99189.63;235880;1195;139056;-61
2021/09/20 10:59:19;;;;;;;7.90;3.10;;;;;;;11.83;63.68;99194.39;236230;1194;139238;-60
2021/09/20 11:04:34;;;;;;;8.00;2.90;;;;;;;11.72;63.61;99200.91;236001;1195;138893;-61
2021/09/20 11:09:43;;;;;;;6.30;3.20;;;;;;;11.65;63.63;99202.98;236264;1194;141900;-63
2021/09/20 11:14:59;;;;;;;4.30;2.50;;;;;;;11.70;63.75;99200.34;236123;1194;138303;-63
2021/09/20 11:20:15;;;;;;;5.40;2.80;;;;;;;11.79;63.76;99199.05;236233;1195;138759;-62
2021/09/20 11:25:18;;;;;;;6.30;3.00;;;;;;;11.85;63.61;99200.11;236176;1195;139295;-63
2021/09/20 11:30:25;;;;;;;9.80;3.00;;;;;;;11.81;63.62;99208.01;236091;1196;138838;-62
2021/09/20 11:35:32;;;;;;;4.20;2.80;;;;;;;11.78;63.16;99208.02;235948;1195;138335;-63
2021/09/20 11:40:35;;;;;;;7.70;3.00;;;;;;;11.75;63.13;99204.83;236311;1194;139554;-62
2021/09/20 11:45:38;;;;;;;8.70;2.60;;;;;;;11.73;63.22;99208.52;236370;1195;139091;-62
2021/09/20 11:50:42;;;;;;;6.10;2.30;;;;;;;11.75;62.81;99212.64;236077;1194;138897;-61
2021/09/20 11:55:49;;;;;;;3.30;1.90;;;;;;;11.82;63.11;99208.10;236293;1195;138918;-61
2021/09/20 12:00:52;;;;;;;4.00;1.60;;;;;;;11.96;62.77;99209.58;236184;1194;138656;-61
2021/09/20 12:06:00;;;;;;;1.70;1.20;;;;;;;12.15;62.81;99212.19;235909;1196;138458;-62
2021/09/20 12:11:03;;;;;;;2.10;1.30;;;;;;;12.27;62.46;99216.05;236001;1194;139046;-62
2021/09/20 12:16:08;;;;;;;5.40;1.60;;;;;;;12.32;62.21;99215.00;236094;1195;139306;-64
2021/09/20 12:21:14;;;;;;;1.90;1.30;;;;;;;12.33;62.03;99217.60;235922;1196;140192;-64
2021/09/20 12:26:20;;;;;;;3.20;1.40;;;;;;;12.41;61.83;99212.84;236263;1194;139586;-62
2021/09/20 12:31:25;;;;;;;3.00;1.30;;;;;;;12.56;62.00;99219.48;236181;1195;138627;-61
2021/09/20 12:37:01;;;;;;;2.00;1.40;;;;;;;12.63;61.94;99231.30;235943;1195;139146;-62
2021/09/20 12:42:11;;;;;;;4.30;1.50;;;;;;;12.65;61.59;99229.23;236061;1195;138521;-60
2021/09/20 12:47:27;;;;;;;4.40;1.60;;;;;;;12.64;61.49;99231.73;235984;1195;138284;-62
2021/09/20 12:52:39;;;;;;;2.50;1.40;;;;;;;12.64;61.01;99230.85;236190;1195;139344;-60
2021/09/20 12:57:53;;;;;;;2.60;1.20;;;;;;;12.70;61.04;99233.11;236273;1195;139804;-62
2021/09/20 13:03:12;;;;;;;2.30;1.50;;;;;;;12.76;61.12;99234.46;236239;1195;139005;-63
2021/09/20 13:08:17;;;;;;;3.40;2.00;;;;;;;12.78;61.02;99233.45;236165;1195;138847;-61
2021/09/20 13:13:34;;;;;;;3.10;1.80;;;;;;;12.74;60.36;99236.02;236064;1195;140102;-63
2021/09/20 13:18:37;;;;;;;3.00;2.00;;;;;;;12.77;60.50;99240.11;236007;1195;139457;-63
2021/09/20 13:23:40;;;;;;;2.90;2.10;;;;;;;12.79;60.48;99246.23;236199;1195;139833;-61
2021/09/20 13:28:44;;;;;;;5.00;2.90;;;;;;;12.76;60.42;99242.31;236175;1194;138777;-61
2021/09/20 13:33:50;;;;;;;3.30;2.50;;;;;;;12.75;60.52;99243.95;236023;1195;139160;-63
2021/09/20 13:38:53;;;;;;;4.90;2.90;;;;;;;12.74;60.58;99244.94;235971;1195;139248;-61
2021/09/20 13:43:56;;;;;;;3.90;2.80;;;;;;;12.73;60.62;99246.95;236135;1195;139040;-63
2021/09/20 13:48:59;;;;;;;4.70;2.50;;;;;;;12.76;60.41;99246.58;235742;1195;138572;-60
2021/09/20 13:54:04;;;;;;;2.80;2.50;;;;;;;12.75;60.28;99244.55;235866;1195;139043;-62
2021/09/20 13:59:07;;;;;;;2.90;2.60;;;;;;;12.73;60.29;99247.34;235837;1195;139273;-63
2021/09/20 14:04:10;;;;;;;5.60;4.30;;;;;;;12.72;60.32;99244.72;236225;1195;138457;-63
2021/09/20 14:09:13;;;;;;;5.30;3.00;;;;;;;12.71;60.32;99251.04;236356;1195;138933;-61
2021/09/20 14:14:17;;;;;;;4.00;3.20;;;;;;;12.70;60.43;99256.06;235962;1195;138940;-62
2021/09/20 14:19:22;;;;;;;7.30;3.40;;;;;;;12.67;60.40;99260.21;235852;1195;138970;-60
2021/09/20 14:24:25;;;;;;;8.30;3.70;;;;;;;12.62;60.21;99262.70;236024;1195;138752;-59
2021/09/20 14:29:28;;;;;;;12.50;8.60;;;;;;;12.61;60.37;99260.80;235943;1195;138502;-62
2021/09/20 14:34:31;;;;;;;23.30;12.50;;;;;;;12.64;60.56;99269.46;236000;1195;138932;-60
2021/09/20 14:39:34;;;;;;;9.80;5.80;;;;;;;12.64;60.54;99275.19;235392;1195;138904;-62
2021/09/20 14:44:38;;;;;;;6.00;4.20;;;;;;;12.60;60.55;99281.31;236166;1195;139051;-62
2021/09/20 14:49:40;;;;;;;4.60;3.70;;;;;;;12.52;60.31;99279.14;236166;1187;139563;-61
2021/09/20 14:54:43;;;;;;;7.10;4.00;;;;;;;12.46;60.53;99288.29;236008;1195;139247;-59
2021/09/20 14:59:46;;;;;;;5.40;4.20;;;;;;;12.42;60.72;99287.85;235921;1196;138794;-60
2021/09/20 15:04:49;;;;;;;6.40;4.10;;;;;;;12.39;60.80;99291.57;236195;1195;139247;-62
2021/09/20 15:09:53;;;;;;;24.40;13.00;;;;;;;12.37;61.30;99295.12;235983;1195;138929;-61
2021/09/20 15:14:56;;;;;;;6.40;4.70;;;;;;;12.36;60.81;99304.47;236021;1195;139198;-59
2021/09/20 15:19:59;;;;;;;7.70;4.00;;;;;;;12.31;61.47;99315.62;235540;1195;138606;-62
2021/09/20 15:25:04;;;;;;;8.10;3.70;;;;;;;12.16;61.47;99320.65;235856;1195;139738;-62
2021/09/20 15:30:10;;;;;;;7.30;4.30;;;;;;;12.04;62.28;99324.79;235589;1195;139337;-61
2021/09/20 15:35:13;;;;;;;8.20;4.90;;;;;;;11.96;62.63;99322.60;236026;1195;138919;-60
2021/09/20 15:40:17;;;;;;;7.00;4.70;;;;;;;11.94;62.86;99323.86;235660;1196;138483;-64
2021/09/20 15:45:23;;;;;;;10.90;4.70;;;;;;;11.88;63.00;99325.83;236071;1195;138832;-64
2021/09/20 15:50:27;;;;;;;40.60;25.70;;;;;;;11.82;63.25;99324.03;236055;1195;138716;-62
2021/09/20 15:55:31;;;;;;;15.70;6.20;;;;;;;11.81;63.50;99323.87;234991;1195;139676;-60
2021/09/20 16:00:35;;;;;;;8.70;5.50;;;;;;;11.79;63.93;99328.68;235634;1196;139394;-61
2021/09/20 16:05:38;;;;;;;7.90;5.00;;;;;;;11.76;63.69;99333.81;236074;1195;138706;-63
2021/09/20 16:10:42;;;;;;;9.30;4.80;;;;;;;11.75;63.95;99338.83;236019;1195;139817;-62
2021/09/20 16:15:46;;;;;;;13.30;8.10;;;;;;;11.78;64.46;99340.64;235616;1195;139156;-61
2021/09/20 16:20:52;;;;;;;13.40;5.30;;;;;;;11.79;64.26;99345.02;235734;1195;138842;-61
2021/09/20 16:25:55;;;;;;;;;;;;;;;11.83;64.65;99355.58;235475;1195;138786;-61
2021/09/20 16:31:03;;;;;;;10.00;5.10;;;;;;;11.86;64.49;99357.75;235661;1195;125558;-61
2021/09/20 16:36:09;;;;;;;9.30;5.90;;;;;;;11.87;64.61;99365.00;236198;1195;138472;-60
2021/09/20 16:41:12;;;;;;;9.80;5.40;;;;;;;11.85;64.60;99369.22;236328;1195;138726;-61
2021/09/20 16:46:15;;;;;;;10.90;5.60;;;;;;;11.79;64.79;99368.29;236067;1195;138013;-62
2021/09/20 16:51:19;;;;;;;13.90;6.30;;;;;;;11.72;64.91;99378.30;235955;1195;139458;-61
2021/09/20 16:56:23;;;;;;;9.40;5.30;;;;;;;11.69;65.04;99379.05;236147;1195;139099;-61
2021/09/20 17:01:26;;;;;;;13.70;6.00;;;;;;;11.71;65.27;99385.35;236109;1195;139099;-61
2021/09/20 17:06:30;;;;;;;99.10;63.80;;;;;;;11.70;65.10;99389.30;235841;1195;138972;-61
2021/09/20 17:11:33;;;;;;;13.50;6.90;;;;;;;11.72;65.44;99399.30;235497;1195;138846;-60
2021/09/20 17:16:37;;;;;;;10.70;6.20;;;;;;;11.70;65.38;99402.30;236100;1195;139228;-61
2021/09/20 17:21:41;;;;;;;15.00;6.20;;;;;;;11.66;65.18;99409.96;235695;1195;139070;-60
2021/09/20 17:26:44;;;;;;;16.50;6.70;;;;;;;11.67;65.71;99418.45;235792;1195;139560;-61
2021/09/20 17:31:48;;;;;;;13.50;6.30;;;;;;;11.64;65.67;99427.54;235607;1194;138765;-60
2021/09/20 17:36:51;;;;;;;12.60;6.10;;;;;;;11.65;66.01;99444.19;235977;1195;140951;-63
2021/09/20 17:41:54;;;;;;;271.80;182.90;;;;;;;11.70;66.57;99449.87;235912;1195;140615;-61
2021/09/20 17:46:57;;;;;;;12.40;7.70;;;;;;;11.88;66.77;99452.94;234837;1195;140672;-60
2021/09/20 17:52:00;;;;;;;8.80;6.30;;;;;;;11.90;66.56;99457.80;236007;1194;138920;-62
2021/09/20 17:57:03;;;;;;;9.30;6.10;;;;;;;11.83;66.27;99464.93;235731;1195;140613;-62
2021/09/20 18:02:07;;;;;;;9.30;6.00;;;;;;;11.76;66.23;99464.47;236145;1195;140076;-61
2021/09/20 18:07:10;;;;;;;12.90;8.60;;;;;;;11.70;66.36;99470.72;235977;1194;138830;-62
2021/09/20 18:12:14;;;;;;;47.90;34.30;;;;;;;11.68;66.68;99480.55;235984;1195;139548;-60
2021/09/20 18:17:17;;;;;;;9.30;6.10;;;;;;;11.74;67.07;99491.97;235433;1195;140076;-61
2021/09/20 18:22:20;;;;;;;8.50;6.30;;;;;;;11.70;66.37;99500.21;235978;1195;139498;-62
2021/09/20 18:27:26;;;;;;;10.40;7.10;;;;;;;11.69;66.73;99509.15;236094;1195;139932;-62
2021/09/20 18:32:32;;;;;;;12.10;7.20;;;;;;;11.69;67.09;99512.73;235758;1195;138775;-60
2021/09/20 18:37:35;;;;;;;12.40;7.20;;;;;;;11.65;66.85;99519.33;235663;1195;138795;-60
2021/09/20 18:42:40;;;;;;;8.50;6.80;;;;;;;11.62;67.27;99523.41;235975;1195;138968;-60
2021/09/20 18:47:44;;;;;;;10.60;6.70;;;;;;;11.55;67.02;99524.88;235685;1195;138379;-60
2021/09/20 18:52:49;;;;;;;12.00;6.50;;;;;;;11.52;66.91;99532.50;236213;1195;139438;-60
2021/09/20 18:57:52;;;;;;;10.40;7.60;;;;;;;11.52;67.40;99536.09;235645;1195;139632;-60
2021/09/20 19:02:55;;;;;;;9.00;7.40;;;;;;;11.52;67.54;99540.72;236332;1194;139523;-61
2021/09/20 19:08:01;;;;;;;10.40;7.30;;;;;;;11.49;67.25;99545.17;235573;1194;139661;-60
2021/09/20 19:13:04;;;;;;;535.20;401.50;;;;;;;11.48;67.96;99551.44;235216;1195;138752;-63
2021/09/20 19:18:11;;;;;;;29.80;17.70;;;;;;;11.64;68.18;99556.70;235502;1195;139620;-60
2021/09/20 19:23:14;;;;;;;9.80;7.20;;;;;;;11.69;67.40;99554.30;235583;1195;139629;-62
2021/09/20 19:28:20;;;;;;;13.60;8.10;;;;;;;11.66;67.45;99559.09;235857;1195;139663;-60
2021/09/20 19:33:23;;;;;;;;;;;;;;;11.64;67.31;99562.41;235925;1195;139113;-61
2021/09/20 19:38:27;;;;;;;10.00;7.40;;;;;;;11.59;67.36;99565.54;236081;1194;125615;-64
2021/09/20 19:43:30;;;;;;;9.80;7.80;;;;;;;11.50;67.07;99568.70;236113;1195;139704;-62
2021/09/20 19:48:33;;;;;;;12.20;7.20;;;;;;;11.45;67.10;99569.16;236115;1195;138705;-62
2021/09/20 19:53:37;;;;;;;10.80;7.40;;;;;;;11.41;67.30;99571.91;235639;1195;139290;-61
2021/09/20 19:58:40;;;;;;;8.80;5.90;;;;;;;11.35;67.18;99578.27;235938;1195;140291;-62
2021/09/20 20:03:43;;;;;;;7.90;5.80;;;;;;;11.32;67.11;99581.83;236106;1195;138787;-63
2021/09/20 20:08:46;;;;;;;9.90;7.20;;;;;;;11.30;67.16;99585.10;235802;1195;139532;-63
2021/09/20 20:13:49;;;;;;;10.50;7.00;;;;;;;11.29;66.97;99592.48;235997;1195;138471;-63
2021/09/20 20:18:55;;;;;;;8.60;6.90;;;;;;;11.31;67.40;99595.52;235846;1195;139228;-60
2021/09/20 20:23:58;;;;;;;;;;;;;;;11.34;67.21;99595.89;236181;1195;139166;-62
2021/09/20 20:29:02;;;;;;;9.90;7.00;;;;;;;11.28;67.09;99595.17;236225;1195;125649;-62
2021/09/20 20:34:12;;;;;;;8.70;6.90;;;;;;;11.23;67.23;99597.59;236120;1195;140996;-60
2021/09/20 20:39:17;;;;;;;8.90;6.50;;;;;;;11.21;67.44;99603.20;236025;1195;138961;-58
2021/09/20 20:44:25;;;;;;;10.30;7.00;;;;;;;11.22;67.36;99609.23;236063;1195;140240;-62
2021/09/20 20:49:28;;;;;;;8.90;6.80;;;;;;;11.24;67.22;99609.46;235679;1196;139248;-59
2021/09/20 20:54:31;;;;;;;9.70;7.10;;;;;;;11.24;67.62;99617.63;236134;1194;139468;-60
2021/09/20 20:59:34;;;;;;;8.40;6.50;;;;;;;11.23;67.44;99619.30;235619;1195;138767;-58
2021/09/20 21:04:37;;;;;;;10.40;6.80;;;;;;;11.20;67.38;99622.48;235827;1195;138680;-59
2021/09/20 21:09:40;;;;;;;9.60;7.00;;;;;;;11.17;67.30;99625.28;236079;1195;138939;-58
2021/09/20 21:14:43;;;;;;;9.80;7.10;;;;;;;11.13;67.26;99624.96;235867;1195;138875;-59
2021/09/20 21:19:46;;;;;;;10.40;6.90;;;;;;;11.10;67.24;99630.11;235893;1195;138467;-60
2021/09/20 21:24:49;;;;;;;9.30;7.00;;;;;;;11.09;67.36;99636.70;236035;1195;140239;-59
2021/09/20 21:29:52;;;;;;;136.80;85.00;;;;;;;11.11;67.76;99639.43;235859;1195;139265;-60
2021/09/20 21:34:55;;;;;;;10.70;8.10;;;;;;;11.22;67.77;99645.45;235856;1195;140110;-57
2021/09/20 21:39:58;;;;;;;11.90;8.20;;;;;;;11.22;67.55;99645.11;235669;1195;140731;-59
2021/09/20 21:45:03;;;;;;;10.90;6.70;;;;;;;11.16;67.08;99651.48;235775;1196;138988;-58
2021/09/20 21:50:07;;;;;;;8.70;7.20;;;;;;;11.10;67.34;99653.38;235919;1195;139425;-62
2021/09/20 21:55:11;;;;;;;9.80;7.10;;;;;;;11.05;67.10;99656.14;236102;1195;139117;-59
2021/09/20 22:00:18;;;;;;;11.60;7.20;;;;;;;10.98;67.28;99659.19;236023;1195;139361;-59
2021/09/20 22:05:21;;;;;;;9.70;6.60;;;;;;;10.93;66.90;99664.21;234286;1195;139447;-60
2021/09/20 22:10:27;;;;;;;10.80;7.10;;;;;;;10.94;66.96;99668.46;233730;1195;138656;-59
2021/09/20 22:15:32;;;;;;;9.30;7.20;;;;;;;10.91;67.13;99667.92;234499;1195;138740;-62
2021/09/20 22:20:36;;;;;;;14.30;6.90;;;;;;;10.86;67.29;99671.73;235961;1195;138853;-60
2021/09/20 22:25:40;;;;;;;11.50;6.90;;;;;;;10.75;67.16;99669.08;235512;1195;139023;-62
2021/09/20 22:30:45;;;;;;;10.70;7.10;;;;;;;10.65;66.99;99666.40;235865;1195;139120;-61
2021/09/20 22:35:49;;;;;;;11.60;7.30;;;;;;;10.60;67.32;99665.45;235782;1194;138640;-62
2021/09/20 22:40:53;;;;;;;11.50;6.00;;;;;;;10.52;66.91;99670.84;236046;1194;139273;-60
2021/09/20 22:45:57;;;;;;;8.40;5.50;;;;;;;10.48;67.17;99679.39;236244;1195;139446;-64
2021/09/20 22:51:01;;;;;;;11.10;6.10;;;;;;;10.45;66.87;99680.24;235283;1196;138992;-61
2021/09/20 22:56:07;;;;;;;8.60;6.50;;;;;;;10.42;67.11;99685.01;235942;1195;139047;-60
2021/09/20 23:01:11;;;;;;;10.00;6.70;;;;;;;10.37;67.25;99685.06;235712;1195;138578;-60
2021/09/20 23:06:14;;;;;;;10.00;6.60;;;;;;;10.32;66.82;99681.60;235116;1196;140093;-64
2021/09/20 23:11:18;;;;;;;10.50;7.30;;;;;;;10.23;66.91;99684.33;234625;1195;138371;-63
2021/09/20 23:16:24;;;;;;;10.50;7.70;;;;;;;10.17;67.11;99688.38;235911;1195;139162;-61